Time;durP1;ratioP1;P1;durP2;ratioP2;P2;SDS_P1;SDS_P2;PMS_P1;PMS_P2;Temp;Humidity;BMP_temperature;BMP_pressure;BME280_temperature;BME280_humidity;BME280_pressure;Samples;Min_cycle;Max_cycle;Signal;HPM_P1;HPM_P2
2021/04/04 00:01:35;;;;;;;10.73;5.07;;;3.40;56.50;;;;;;5034174;28;20030;-79
2021/04/04 00:04:01;;;;;;;7.55;4.57;;;3.50;56.60;;;;;;5034151;28;20072;-80
2021/04/04 00:06:27;;;;;;;9.07;5.00;;;3.50;56.40;;;;;;5038429;28;20030;-80
2021/04/04 00:08:52;;;;;;;12.20;5.20;;;3.50;56.30;;;;;;5034843;28;20046;-80
2021/04/04 00:11:18;;;;;;;11.77;4.95;;;3.60;56.30;;;;;;5034078;28;20052;-80
2021/04/04 00:13:44;;;;;;;8.88;4.75;;;3.40;56.10;;;;;;5038555;28;20117;-79
2021/04/04 00:16:10;;;;;;;16.92;5.60;;;3.40;56.30;;;;;;5039070;28;20105;-80
2021/04/04 00:18:36;;;;;;;9.27;4.40;;;3.30;56.60;;;;;;5034204;28;20386;-81
2021/04/04 00:21:02;;;;;;;7.22;4.03;;;3.30;56.70;;;;;;5034785;28;20083;-80
2021/04/04 00:23:27;;;;;;;7.53;3.83;;;3.30;56.80;;;;;;5040527;28;20041;-80
2021/04/04 00:25:53;;;;;;;12.52;4.47;;;3.30;57.60;;;;;;5037183;28;20025;-80
2021/04/04 00:28:19;;;;;;;8.32;4.20;;;3.30;56.80;;;;;;5037231;28;20033;-80
2021/04/04 00:30:44;;;;;;;8.65;3.72;;;3.30;56.60;;;;;;5036968;28;20021;-80
2021/04/04 00:33:10;;;;;;;9.60;4.63;;;3.30;56.60;;;;;;5036518;28;20022;-78
2021/04/04 00:35:36;;;;;;;9.23;4.60;;;3.30;56.70;;;;;;5036876;28;20466;-80
2021/04/04 00:38:02;;;;;;;9.32;4.20;;;3.30;56.70;;;;;;5036553;28;20033;-80
2021/04/04 00:40:33;;;;;;;9.77;4.18;;;3.30;56.80;;;;;;5036795;28;20026;-79
2021/04/04 00:42:59;;;;;;;8.52;4.07;;;3.30;56.70;;;;;;5036579;28;20033;-80
2021/04/04 00:45:34;;;;;;;9.45;3.80;;;3.20;56.80;;;;;;5037001;28;20462;-80
2021/04/04 00:48:00;;;;;;;9.38;3.53;;;3.20;57.00;;;;;;5036802;28;20044;-79
2021/04/04 00:50:29;;;;;;;7.82;3.65;;;3.20;57.10;;;;;;5036461;28;20470;-78
2021/04/04 00:52:57;;;;;;;9.75;4.20;;;3.10;57.30;;;;;;5038738;28;20034;-80
2021/04/04 00:55:23;;;;;;;7.50;3.53;;;3.10;57.40;;;;;;5045869;28;20108;-80
2021/04/04 00:57:50;;;;;;;10.15;4.07;;;3.10;57.50;;;;;;5055409;28;20037;-79
2021/04/04 01:00:17;;;;;;;8.50;4.03;;;3.10;57.50;;;;;;5053470;28;20032;-79
2021/04/04 01:02:43;;;;;;;9.68;4.10;;;3.10;57.40;;;;;;5038655;28;20089;-80
2021/04/04 01:05:12;;;;;;;13.85;4.32;;;3.00;57.30;;;;;;5036912;28;20175;-80
2021/04/04 01:07:38;;;;;;;14.40;5.00;;;3.00;57.50;;;;;;5036565;28;20426;-79
2021/04/04 01:10:06;;;;;;;9.50;4.50;;;2.90;57.60;;;;;;5036695;28;20025;-79
2021/04/04 01:12:47;;;;;;;10.25;4.70;;;3.00;57.80;;;;;;5037088;28;20029;-80
2021/04/04 01:15:19;;;;;;;8.40;3.72;;;3.00;58.00;;;;;;5036875;28;20454;-80
2021/04/04 01:17:48;;;;;;;7.30;3.50;;;3.00;58.00;;;;;;5045189;28;20051;-79
2021/04/04 01:20:23;;;;;;;7.53;3.45;;;3.00;57.90;;;;;;5043980;28;20470;-80
2021/04/04 01:22:57;;;;;;;8.48;3.28;;;2.90;58.10;;;;;;5040247;28;20029;-80
2021/04/04 01:25:38;;;;;;;9.60;3.30;;;2.80;58.20;;;;;;5037975;28;20402;-79
2021/04/04 01:28:11;;;;;;;11.13;3.80;;;2.80;58.40;;;;;;5036726;28;20474;-80
2021/04/04 01:30:40;;;;;;;9.45;4.28;;;2.80;58.50;;;;;;5035623;28;20446;-80
2021/04/04 01:33:09;;;;;;;8.23;3.67;;;2.80;58.70;;;;;;5035753;28;20021;-79
2021/04/04 01:35:37;;;;;;;12.25;3.78;;;2.80;58.70;;;;;;5038983;28;20052;-79
2021/04/04 01:38:13;;;;;;;10.40;3.55;;;2.80;58.70;;;;;;5017933;28;20045;-80
2021/04/04 01:40:42;;;;;;;7.20;3.58;;;2.70;58.80;;;;;;5038461;28;20046;-79
2021/04/04 01:43:09;;;;;;;10.85;4.25;;;2.70;58.90;;;;;;5017938;28;20504;-79
2021/04/04 01:45:36;;;;;;;11.00;3.80;;;2.60;58.90;;;;;;5036507;28;20022;-80
2021/04/04 01:48:03;;;;;;;7.85;3.60;;;2.60;58.70;;;;;;5039507;28;20382;-80
2021/04/04 01:50:29;;;;;;;8.30;3.35;;;2.60;58.70;;;;;;5037991;28;20409;-80
2021/04/04 01:52:56;;;;;;;10.18;4.70;;;2.60;58.70;;;;;;5036299;28;20029;-79
2021/04/04 01:55:23;;;;;;;10.68;4.68;;;2.60;59.00;;;;;;5036068;28;20359;-80
2021/04/04 01:57:50;;;;;;;11.82;4.30;;;2.50;59.40;;;;;;5035844;28;20482;-80
2021/04/04 02:00:21;;;;;;;11.60;3.83;;;2.50;59.80;;;;;;5035516;28;20425;-80
2021/04/04 02:02:48;;;;;;;7.35;3.75;;;2.40;59.70;;;;;;5035810;28;20040;-80
2021/04/04 02:05:16;;;;;;;17.33;4.88;;;2.40;59.90;;;;;;5035446;28;20111;-81
2021/04/04 02:07:44;;;;;;;12.05;4.22;;;2.50;60.20;;;;;;5034981;28;20189;-80
2021/04/04 02:10:12;;;;;;;9.02;4.60;;;2.50;60.10;;;;;;5035407;28;20022;-79
2021/04/04 02:12:38;;;;;;;8.85;4.43;;;2.50;60.10;;;;;;5034931;28;20030;-80
2021/04/04 02:15:09;;;;;;;6.85;4.30;;;2.50;59.90;;;;;;5034930;28;20470;-81
2021/04/04 02:17:36;;;;;;;9.43;4.07;;;2.60;59.90;;;;;;5034630;28;20037;-80
2021/04/04 02:20:09;;;;;;;9.98;3.95;;;2.60;59.90;;;;;;5034771;28;20026;-80
2021/04/04 02:22:37;;;;;;;7.70;2.83;;;2.60;59.90;;;;;;5034326;28;20060;-80
2021/04/04 02:25:03;;;;;;;11.75;3.47;;;2.60;59.70;;;;;;5034665;28;20512;-80
2021/04/04 02:27:29;;;;;;;9.48;3.53;;;2.60;59.60;;;;;;5016793;28;20075;-79
2021/04/04 02:29:54;;;;;;;9.98;3.45;;;2.60;59.50;;;;;;5034616;28;20029;-80
2021/04/04 02:32:22;;;;;;;5.63;3.00;;;2.50;59.50;;;;;;5034580;28;20053;-80
2021/04/04 02:34:52;;;;;;;7.13;3.80;;;2.50;59.60;;;;;;5016673;28;20478;-80
2021/04/04 02:37:18;;;;;;;13.43;4.60;;;2.40;59.60;;;;;;5034473;28;20056;-80
2021/04/04 02:40:01;;;;;;;11.40;3.88;;;2.40;59.60;;;;;;5034629;28;20424;-80
2021/04/04 02:42:28;;;;;;;14.15;3.92;;;2.30;59.70;;;;;;5035774;28;20021;-80
2021/04/04 02:44:57;;;;;;;9.10;3.83;;;2.30;59.90;;;;;;5016540;28;20109;-80
2021/04/04 02:47:26;;;;;;;6.60;3.17;;;2.30;60.10;;;;;;5034132;28;20111;-79
2021/04/04 02:49:53;;;;;;;12.85;3.78;;;2.30;60.20;;;;;;5034014;28;20178;-80
2021/04/04 02:52:21;;;;;;;11.32;3.30;;;2.20;60.20;;;;;;5034953;28;20036;-80
2021/04/04 02:54:55;;;;;;;6.53;2.63;;;2.20;60.30;;;;;;5034245;28;20075;-80
2021/04/04 02:57:27;;;;;;;7.03;2.65;;;2.20;60.40;;;;;;5033946;28;20371;-80
2021/04/04 02:59:56;;;;;;;5.47;2.92;;;2.20;61.50;;;;;;5033861;28;20057;-80
2021/04/04 03:02:23;;;;;;;7.78;2.85;;;2.20;60.70;;;;;;5033940;28;20635;-79
2021/04/04 03:04:51;;;;;;;5.75;2.83;;;2.10;60.70;;;;;;5033802;28;20569;-80
2021/04/04 03:07:19;;;;;;;4.70;2.63;;;2.10;60.80;;;;;;5015886;28;20096;-80
2021/04/04 03:09:48;;;;;;;6.30;2.92;;;2.10;60.70;;;;;;5033593;28;20037;-80
2021/04/04 03:12:15;;;;;;;6.25;2.58;;;2.00;60.60;;;;;;5016015;28;20030;-80
2021/04/04 03:14:43;;;;;;;8.07;2.90;;;2.00;60.60;;;;;;5015712;28;20025;-81
2021/04/04 03:17:10;;;;;;;5.78;2.85;;;2.00;60.60;;;;;;5033819;28;20029;-81
2021/04/04 03:19:38;;;;;;;9.57;2.65;;;2.00;60.70;;;;;;5033469;28;20026;-80
2021/04/04 03:22:05;;;;;;;7.05;2.85;;;2.00;60.70;;;;;;5046110;28;20072;-80
2021/04/04 03:24:32;;;;;;;7.40;2.78;;;2.00;60.60;;;;;;5055273;28;20041;-77
2021/04/04 03:26:59;;;;;;;5.97;2.80;;;2.00;60.50;;;;;;5045182;28;20034;-80
2021/04/04 03:29:24;;;;;;;6.00;2.47;;;2.00;60.70;;;;;;5033928;28;20025;-80
2021/04/04 03:31:51;;;;;;;9.85;2.95;;;2.00;60.70;;;;;;5032878;28;20031;-80
2021/04/04 03:34:18;;;;;;;7.07;2.58;;;2.10;60.70;;;;;;5033373;28;20470;-80
2021/04/04 03:36:45;;;;;;;6.72;2.30;;;2.00;60.50;;;;;;5033308;28;20028;-80
2021/04/04 03:39:12;;;;;;;5.88;2.65;;;1.90;60.70;;;;;;5033217;28;20059;-80
2021/04/04 03:41:38;;;;;;;7.05;2.85;;;1.90;60.80;;;;;;5033172;28;20067;-80
2021/04/04 03:44:05;;;;;;;5.28;2.67;;;2.00;61.10;;;;;;5033063;28;20041;-79
2021/04/04 03:46:33;;;;;;;7.07;2.30;;;2.00;61.20;;;;;;5033102;28;20498;-80
2021/04/04 03:49:00;;;;;;;5.68;2.83;;;2.00;61.20;;;;;;5015363;28;20440;-80
2021/04/04 03:51:28;;;;;;;4.72;2.47;;;2.00;61.20;;;;;;5033013;28;20032;-80
2021/04/04 03:53:55;;;;;;;6.35;2.90;;;2.00;61.20;;;;;;5032947;28;20057;-80
2021/04/04 03:56:24;;;;;;;8.25;2.60;;;1.90;61.20;;;;;;5032732;28;20107;-80
2021/04/04 03:58:50;;;;;;;9.27;2.65;;;1.90;61.30;;;;;;5032948;28;20061;-80
2021/04/04 04:01:20;;;;;;;8.23;2.75;;;1.90;61.30;;;;;;5015244;28;20385;-80
2021/04/04 04:03:47;;;;;;;9.27;2.42;;;1.90;61.30;;;;;;5032684;28;20041;-80
2021/04/04 04:06:13;;;;;;;9.85;2.67;;;1.90;61.40;;;;;;5033047;28;20022;-80
2021/04/04 04:08:40;;;;;;;5.50;2.85;;;1.80;61.30;;;;;;5032723;28;20049;-80
2021/04/04 04:11:10;;;;;;;7.63;4.18;;;1.80;61.30;;;;;;5032918;28;20033;-80
2021/04/04 04:13:37;;;;;;;9.40;4.78;;;1.80;61.30;;;;;;5015221;28;20313;-80
2021/04/04 04:16:04;;;;;;;8.88;4.07;;;1.80;61.40;;;;;;5032767;28;20029;-80
2021/04/04 04:18:31;;;;;;;6.55;3.67;;;1.80;61.40;;;;;;5032731;28;20057;-79
2021/04/04 04:20:56;;;;;;;7.40;3.60;;;1.80;61.40;;;;;;5032882;28;20018;-80
2021/04/04 04:23:23;;;;;;;6.18;3.20;;;1.70;61.30;;;;;;5032626;28;20087;-79
2021/04/04 04:25:52;;;;;;;8.20;2.70;;;1.70;61.50;;;;;;5033000;28;20022;-80
2021/04/04 04:28:19;;;;;;;6.45;2.50;;;1.70;61.60;;;;;;5032651;28;20483;-79
2021/04/04 04:30:45;;;;;;;9.30;2.70;;;1.70;61.70;;;;;;5032610;28;20025;-79
2021/04/04 04:33:15;;;;;;;5.57;2.65;;;1.60;61.50;;;;;;5032787;28;20394;-79
2021/04/04 04:35:42;;;;;;;6.50;2.67;;;1.60;61.50;;;;;;5032758;28;20512;-80
2021/04/04 04:38:09;;;;;;;8.15;3.30;;;1.50;61.60;;;;;;5032703;28;20029;-80
2021/04/04 04:40:35;;;;;;;10.60;4.22;;;1.40;62.10;;;;;;5032416;28;20030;-80
2021/04/04 04:43:02;;;;;;;7.28;3.55;;;1.40;62.50;;;;;;5032511;28;20028;-80
2021/04/04 04:45:31;;;;;;;10.45;4.00;;;1.40;62.50;;;;;;5032618;28;20088;-77
2021/04/04 04:47:58;;;;;;;11.93;4.20;;;1.40;62.70;;;;;;5032605;28;20044;-80
2021/04/04 04:50:25;;;;;;;15.50;5.43;;;1.40;62.70;;;;;;5032488;28;20088;-80
2021/04/04 04:52:51;;;;;;;11.48;5.70;;;1.40;62.70;;;;;;5014801;28;20029;-80
2021/04/04 04:55:21;;;;;;;7.82;4.78;;;1.40;62.50;;;;;;5032453;28;20032;-80
2021/04/04 04:57:48;;;;;;;10.35;4.80;;;1.30;62.60;;;;;;5032413;28;20022;-80
2021/04/04 05:00:14;;;;;;;7.55;3.70;;;1.30;62.70;;;;;;5032462;28;20064;-80
2021/04/04 05:02:41;;;;;;;8.55;3.55;;;1.20;62.80;;;;;;5032199;28;20083;-80
2021/04/04 05:05:09;;;;;;;5.90;3.30;;;1.20;62.80;;;;;;5032508;28;20025;-80
2021/04/04 05:07:37;;;;;;;7.90;2.97;;;1.30;62.80;;;;;;5032084;28;20073;-78
2021/04/04 05:10:05;;;;;;;8.20;3.75;;;1.30;62.80;;;;;;5035023;28;20025;-79
2021/04/04 05:12:32;;;;;;;9.02;3.85;;;1.40;62.50;;;;;;5035829;28;20022;-80
2021/04/04 05:15:04;;;;;;;10.13;4.40;;;1.40;62.40;;;;;;5036080;28;20030;-79
2021/04/04 05:17:34;;;;;;;12.45;4.68;;;1.50;62.30;;;;;;5036499;28;20100;-80
2021/04/04 05:20:01;;;;;;;9.55;4.35;;;1.50;62.20;;;;;;5018319;28;20028;-80
2021/04/04 05:22:28;;;;;;;11.77;3.92;;;1.50;62.00;;;;;;5035743;28;20078;-81
2021/04/04 05:24:56;;;;;;;7.78;3.75;;;1.60;62.00;;;;;;5035793;28;20034;-81
2021/04/04 05:27:21;;;;;;;9.65;3.72;;;1.60;61.80;;;;;;5035687;28;20509;-80
2021/04/04 05:29:47;;;;;;;11.70;4.38;;;1.60;61.60;;;;;;5035689;28;20025;-81
2021/04/04 05:32:13;;;;;;;9.65;4.10;;;1.70;61.50;;;;;;5019177;28;20423;-80
2021/04/04 05:34:39;;;;;;;7.50;3.30;;;1.80;61.30;;;;;;5035406;28;20022;-80
2021/04/04 05:37:07;;;;;;;8.00;3.30;;;1.90;61.10;;;;;;5035419;28;20044;-79
2021/04/04 05:39:38;;;;;;;9.23;3.28;;;2.00;60.90;;;;;;5035372;28;20034;-79
2021/04/04 05:42:07;;;;;;;11.15;4.45;;;2.10;60.60;;;;;;5036301;28;20045;-80
2021/04/04 05:44:48;;;;;;;10.02;4.30;;;2.20;60.20;;;;;;5023268;28;20367;-82
2021/04/04 05:47:23;;;;;;;11.60;4.43;;;2.30;59.80;;;;;;5048286;28;20053;-82
2021/04/04 05:49:58;;;;;;;9.05;3.83;;;2.30;59.40;;;;;;5047195;28;20021;-81
2021/04/04 05:52:39;;;;;;;5.53;2.83;;;2.40;59.10;;;;;;5028262;28;20057;-81
2021/04/04 05:55:43;;;;;;;9.98;4.35;;;2.40;58.80;;;;;;5029167;28;20030;-79
2021/04/04 05:58:14;;;;;;;16.98;6.10;;;2.40;59.70;;;;;;5032705;28;20037;-82
2021/04/04 06:00:46;;;;;;;18.60;10.38;;;2.50;58.90;;;;;;5038648;28;20025;-81
2021/04/04 06:03:11;;;;;;;23.67;11.30;;;2.50;58.80;;;;;;5039915;28;20116;-81
2021/04/04 06:06:08;;;;;;;17.60;7.15;;;2.70;60.00;;;;;;5024992;28;20049;-81
2021/04/04 06:08:53;;;;;;;15.02;7.15;;;2.80;59.80;;;;;;5043173;28;20052;-81
2021/04/04 06:11:38;;;;;;;11.73;5.72;;;2.90;59.50;;;;;;5039896;28;20025;-81
2021/04/04 06:14:34;;;;;;;10.90;6.03;;;3.00;59.50;;;;;;4989596;28;20033;-82
2021/04/04 06:17:16;;;;;;;13.80;6.35;;;3.10;59.60;;;;;;5045149;28;20049;-82
2021/04/04 06:19:59;;;;;;;15.20;6.70;;;3.20;59.40;;;;;;5034845;28;20018;-82
2021/04/04 06:22:52;;;;;;;13.93;7.03;;;3.30;58.80;;;;;;5035670;28;20026;-81
2021/04/04 06:25:53;;;;;;;13.90;6.00;;;3.30;58.10;;;;;;5035404;28;20033;-81
2021/04/04 06:28:40;;;;;;;14.27;5.60;;;3.40;57.60;;;;;;5037582;28;20079;-81
2021/04/04 06:31:29;;;;;;;11.82;5.00;;;3.50;57.20;;;;;;5037359;28;20080;-81
2021/04/04 06:34:20;;;;;;;9.90;4.53;;;3.50;56.80;;;;;;5034691;28;20104;-80
2021/04/04 06:37:38;;;;;;;11.70;6.80;;;3.60;56.60;;;;;;5023263;28;20033;-83
2021/04/04 06:40:04;;;;;;;72.53;34.30;;;3.80;56.40;;;;;;4985134;28;20451;-81
2021/04/04 06:42:42;;;;;;;34.13;18.15;;;3.90;56.20;;;;;;5021280;28;20033;-82
2021/04/04 06:45:21;;;;;;;22.17;9.00;;;4.00;55.70;;;;;;5040791;28;20425;-82
2021/04/04 06:47:46;;;;;;;11.60;5.75;;;4.10;55.40;;;;;;5037765;28;20021;-81
2021/04/04 06:50:20;;;;;;;9.10;5.22;;;4.20;55.10;;;;;;5034851;28;20029;-82
2021/04/04 06:53:02;;;;;;;12.38;6.43;;;4.30;54.80;;;;;;5035112;28;20052;-81
2021/04/04 06:56:06;;;;;;;15.48;5.75;;;4.40;54.60;;;;;;5036525;28;20068;-79
2021/04/04 06:58:46;;;;;;;14.05;6.07;;;4.50;54.50;;;;;;5018682;28;20033;-82
2021/04/04 07:01:39;;;;;;;11.93;5.78;;;4.60;54.40;;;;;;5038080;28;20081;-81
2021/04/04 07:04:20;;;;;;;10.57;4.95;;;4.70;54.30;;;;;;5037284;28;20026;-81
2021/04/04 07:07:24;;;;;;;11.18;5.13;;;4.80;54.00;;;;;;5040151;28;20068;-81
2021/04/04 07:10:10;;;;;;;17.00;5.90;;;5.00;53.90;;;;;;5034338;28;20107;-80
2021/04/04 07:12:57;;;;;;;9.13;4.72;;;5.10;53.60;;;;;;5036342;28;20044;-81
2021/04/04 07:15:53;;;;;;;13.43;4.47;;;5.10;53.00;;;;;;5033666;28;20109;-80
2021/04/04 07:18:46;;;;;;;9.90;4.80;;;5.30;53.20;;;;;;5033508;28;20102;-82
2021/04/04 07:21:31;;;;;;;15.88;5.75;;;5.40;53.40;;;;;;5037801;28;20494;-81
2021/04/04 07:24:34;;;;;;;12.48;5.70;;;5.60;54.40;;;;;;5020076;28;20041;-82
2021/04/04 07:27:30;;;;;;;11.77;5.00;;;5.80;54.10;;;;;;5041328;28;20023;-80
2021/04/04 07:29:56;;;;;;;;;;;6.00;53.60;;;;;;5036905;28;20037;-82
2021/04/04 07:32:35;;;;;;;10.40;4.80;;;6.10;53.30;;;;;;5035508;28;20269;-81
2021/04/04 07:35:14;;;;;;;9.65;4.65;;;6.20;53.10;;;;;;5033743;28;20030;-81
2021/04/04 07:37:48;;;;;;;9.68;4.55;;;6.30;53.00;;;;;;5033474;28;20049;-81
2021/04/04 07:40:24;;;;;;;8.35;4.05;;;6.40;52.50;;;;;;5033347;28;20034;-81
2021/04/04 07:43:03;;;;;;;9.73;4.07;;;6.60;52.60;;;;;;5033375;28;20025;-79
2021/04/04 07:45:51;;;;;;;10.35;4.05;;;6.70;52.60;;;;;;5033300;28;20029;-79
2021/04/04 07:48:37;;;;;;;13.68;4.28;;;6.80;51.80;;;;;;5033334;28;20045;-81
2021/04/04 07:51:05;;;;;;;10.50;3.70;;;7.00;52.50;;;;;;5041521;28;20030;-81
2021/04/04 07:53:45;;;;;;;11.30;4.28;;;7.10;51.80;;;;;;5039882;28;20026;-78
2021/04/04 07:56:18;;;;;;;10.63;4.00;;;7.30;50.80;;;;;;5039380;28;20022;-80
2021/04/04 07:58:56;;;;;;;12.77;4.57;;;7.40;49.90;;;;;;5043487;28;20033;-81
2021/04/04 08:01:36;;;;;;;12.82;4.63;;;7.50;49.20;;;;;;5034221;28;20022;-74
2021/04/04 08:04:29;;;;;;;14.82;4.72;;;7.60;53.30;;;;;;5035729;28;20382;-73
2021/04/04 08:07:07;;;;;;;10.02;3.45;;;8.20;61.50;;;;;;5033350;28;20038;-73
2021/04/04 08:09:44;;;;;;;8.88;3.67;;;8.60;56.90;;;;;;5015811;28;20033;-74
2021/04/04 08:12:30;;;;;;;12.00;3.45;;;9.00;55.60;;;;;;5033816;28;20053;-73
2021/04/04 08:15:07;;;;;;;8.50;3.40;;;9.50;54.60;;;;;;5017808;28;20096;-74
2021/04/04 08:17:36;;;;;;;12.13;3.45;;;9.80;49.40;;;;;;5036253;28;20079;-74
2021/04/04 08:20:17;;;;;;;9.88;3.63;;;10.00;48.30;;;;;;5051881;28;20028;-74
2021/04/04 08:22:48;;;;;;;8.45;4.10;;;10.30;46.80;;;;;;5053718;28;20036;-74
2021/04/04 08:25:19;;;;;;;7.38;3.28;;;10.40;45.80;;;;;;5050035;28;20036;-74
2021/04/04 08:27:54;;;;;;;10.27;4.40;;;10.60;46.30;;;;;;5036477;28;20017;-74
2021/04/04 08:30:31;;;;;;;8.20;3.45;;;10.60;44.50;;;;;;5035818;28;20021;-74
2021/04/04 08:33:10;;;;;;;10.48;4.18;;;10.50;44.80;;;;;;5035183;28;20029;-75
2021/04/04 08:35:38;;;;;;;11.43;4.30;;;10.60;45.60;;;;;;5036129;28;20021;-74
2021/04/04 08:38:23;;;;;;;8.52;3.92;;;10.70;44.00;;;;;;5034865;28;20084;-74
2021/04/04 08:40:49;;;;;;;11.35;4.25;;;10.90;44.60;;;;;;5035137;28;20081;-73
2021/04/04 08:43:16;;;;;;;8.68;3.78;;;10.90;44.10;;;;;;5035639;28;20025;-74
2021/04/04 08:46:02;;;;;;;8.65;3.95;;;11.10;43.60;;;;;;5038938;28;20025;-73
2021/04/04 08:48:29;;;;;;;8.60;3.22;;;11.30;44.90;;;;;;5038499;28;20079;-74
2021/04/04 08:50:57;;;;;;;9.55;3.70;;;11.50;43.50;;;;;;5036831;28;20064;-74
2021/04/04 08:53:27;;;;;;;11.20;3.75;;;11.70;43.60;;;;;;5037327;28;20037;-74
2021/04/04 08:55:54;;;;;;;10.20;4.25;;;11.70;43.00;;;;;;5037647;28;20026;-73
2021/04/04 08:58:35;;;;;;;9.30;4.05;;;11.70;42.40;;;;;;5037122;28;20030;-74
2021/04/04 09:01:05;;;;;;;6.28;3.53;;;11.60;41.60;;;;;;5018723;28;20025;-74
2021/04/04 09:03:36;;;;;;;6.90;4.25;;;11.60;41.50;;;;;;5036864;28;20037;-75
2021/04/04 09:06:04;;;;;;;14.60;3.92;;;11.70;42.70;;;;;;5036606;28;20453;-73
2021/04/04 09:08:30;;;;;;;6.85;3.70;;;11.80;41.40;;;;;;5036251;28;20529;-73
2021/04/04 09:10:58;;;;;;;8.15;4.13;;;12.10;41.40;;;;;;5036441;28;20101;-74
2021/04/04 09:13:24;;;;;;;9.25;4.03;;;12.00;39.80;;;;;;5036183;28;20110;-74
2021/04/04 09:15:51;;;;;;;9.02;3.85;;;12.00;40.70;;;;;;5036967;28;20041;-73
2021/04/04 09:18:18;;;;;;;8.68;4.07;;;12.10;40.30;;;;;;5036174;28;20367;-75
2021/04/04 09:20:46;;;;;;;8.93;4.00;;;12.20;39.20;;;;;;5036454;28;20017;-73
2021/04/04 09:23:21;;;;;;;10.52;3.90;;;12.20;38.70;;;;;;5036210;28;20028;-75
2021/04/04 09:25:55;;;;;;;11.70;4.45;;;12.20;38.60;;;;;;5036410;28;20121;-75
2021/04/04 09:28:24;;;;;;;8.60;4.18;;;12.30;38.70;;;;;;5035952;28;20026;-75
2021/04/04 09:30:50;;;;;;;8.35;3.75;;;12.10;38.50;;;;;;5035799;28;20277;-75
2021/04/04 09:33:19;;;;;;;7.78;4.18;;;12.20;38.40;;;;;;5036096;28;20480;-74
2021/04/04 09:35:53;;;;;;;10.63;4.38;;;12.20;38.10;;;;;;5036111;28;20374;-76
2021/04/04 09:38:19;;;;;;;9.32;3.78;;;12.20;37.70;;;;;;5035905;28;20053;-73
2021/04/04 09:40:47;;;;;;;9.35;4.15;;;12.30;37.80;;;;;;5036124;28;20096;-73
2021/04/04 09:43:14;;;;;;;12.23;3.88;;;12.20;37.40;;;;;;5018737;28;20033;-73
2021/04/04 09:45:41;;;;;;;7.97;3.75;;;12.50;37.90;;;;;;5036410;28;20048;-74
2021/04/04 09:48:20;;;;;;;10.18;3.60;;;12.90;37.40;;;;;;5035421;28;20025;-75
2021/04/04 09:50:47;;;;;;;7.88;3.90;;;13.10;37.50;;;;;;5036533;28;20489;-73
2021/04/04 09:53:13;;;;;;;8.30;3.65;;;13.20;36.40;;;;;;5036133;28;20034;-73
2021/04/04 09:55:45;;;;;;;10.55;3.72;;;13.30;35.50;;;;;;5035564;28;20096;-81
2021/04/04 09:58:11;;;;;;;8.60;3.10;;;13.10;34.20;;;;;;5034396;28;20169;-79
2021/04/04 10:00:38;;;;;;;7.10;3.20;;;12.70;33.20;;;;;;5034850;28;20041;-73
2021/04/04 10:03:15;;;;;;;7.53;3.47;;;12.40;32.70;;;;;;5033927;28;20071;-76
2021/04/04 10:05:43;;;;;;;7.18;3.45;;;11.90;32.60;;;;;;5034244;28;20030;-76
2021/04/04 10:08:22;;;;;;;8.02;3.10;;;11.80;32.70;;;;;;5034074;28;20042;-76
2021/04/04 10:10:49;;;;;;;7.68;3.75;;;11.70;33.20;;;;;;5034093;28;20410;-76
2021/04/04 10:13:16;;;;;;;9.20;3.67;;;11.90;33.80;;;;;;5016459;28;20032;-76
2021/04/04 10:15:50;;;;;;;8.95;3.63;;;12.00;33.60;;;;;;5034114;28;20033;-75
2021/04/04 10:18:17;;;;;;;8.30;3.42;;;12.10;33.60;;;;;;5034199;28;20021;-75
2021/04/04 10:20:54;;;;;;;7.05;3.65;;;12.20;33.60;;;;;;5033783;28;20508;-75
2021/04/04 10:23:28;;;;;;;8.35;3.70;;;12.20;33.10;;;;;;5034319;28;20045;-79
2021/04/04 10:26:05;;;;;;;9.00;3.47;;;12.40;33.40;;;;;;5033969;28;20421;-80
2021/04/04 10:28:51;;;;;;;6.97;3.53;;;12.40;32.90;;;;;;5034237;28;20500;-82
2021/04/04 10:31:18;;;;;;;9.25;3.47;;;12.70;33.10;;;;;;5033809;28;20025;-76
2021/04/04 10:33:44;;;;;;;7.82;3.40;;;12.90;32.60;;;;;;5033842;28;20100;-77
2021/04/04 10:36:15;;;;;;;6.97;3.42;;;13.20;32.00;;;;;;5034018;28;20044;-77
2021/04/04 10:38:41;;;;;;;4.75;2.67;;;13.40;31.70;;;;;;5016085;28;20445;-79
2021/04/04 10:41:07;;;;;;;9.02;3.28;;;13.30;31.40;;;;;;5033971;28;20087;-77
2021/04/04 10:43:38;;;;;;;8.55;4.25;;;13.50;31.50;;;;;;5033426;28;20115;-80
2021/04/04 10:46:05;;;;;;;7.10;4.05;;;13.40;30.80;;;;;;5033924;28;20122;-82
2021/04/04 10:48:49;;;;;;;7.15;3.05;;;13.60;30.60;;;;;;5015274;28;20068;-80
2021/04/04 10:51:19;;;;;;;8.25;2.70;;;14.00;30.60;;;;;;5033081;28;20061;-79
2021/04/04 10:53:45;;;;;;;7.22;3.40;;;14.10;29.80;;;;;;5033271;28;20145;-76
2021/04/04 10:56:13;;;;;;;12.30;3.67;;;14.00;29.10;;;;;;5033371;28;20029;-76
2021/04/04 10:58:40;;;;;;;7.30;3.00;;;13.50;28.90;;;;;;5015321;28;20063;-79
2021/04/04 11:01:06;;;;;;;9.25;3.20;;;13.70;29.10;;;;;;5033160;28;20489;-76
2021/04/04 11:03:33;;;;;;;9.10;2.80;;;13.90;29.30;;;;;;5033049;28;20033;-75
2021/04/04 11:06:00;;;;;;;3.90;2.55;;;13.70;28.80;;;;;;5032673;28;20457;-74
2021/04/04 11:08:25;;;;;;;6.82;2.92;;;13.60;28.20;;;;;;5032217;28;20045;-75
2021/04/04 11:10:52;;;;;;;8.23;2.95;;;13.80;27.70;;;;;;5032661;28;20293;-77
2021/04/04 11:13:22;;;;;;;8.07;2.67;;;14.00;27.30;;;;;;5015203;28;20033;-78
2021/04/04 11:15:57;;;;;;;7.68;3.28;;;14.40;27.90;;;;;;5015137;28;20086;-77
2021/04/04 11:18:34;;;;;;;6.75;2.55;;;13.90;26.60;;;;;;5032865;28;20030;-73
2021/04/04 11:21:03;;;;;;;7.93;3.30;;;14.00;27.00;;;;;;5011339;28;20108;-76
2021/04/04 11:23:30;;;;;;;6.88;2.80;;;14.30;26.80;;;;;;5020688;28;20482;-75
2021/04/04 11:25:56;;;;;;;7.95;2.78;;;14.60;26.60;;;;;;5015343;28;20026;-78
2021/04/04 11:28:25;;;;;;;4.40;2.55;;;14.60;26.30;;;;;;5032336;28;20037;-77
2021/04/04 11:30:53;;;;;;;7.65;2.95;;;14.90;26.00;;;;;;5030441;28;20491;-75
2021/04/04 11:33:20;;;;;;;9.23;3.47;;;14.70;26.70;;;;;;5016014;28;20478;-76
2021/04/04 11:36:01;;;;;;;5.70;2.78;;;14.90;26.00;;;;;;4995177;28;20026;-76
2021/04/04 11:38:32;;;;;;;5.00;2.85;;;14.90;25.90;;;;;;5012882;28;20029;-78
2021/04/04 11:41:10;;;;;;;7.57;2.83;;;15.00;25.40;;;;;;4995304;28;20077;-75
2021/04/04 11:43:36;;;;;;;7.90;2.97;;;15.40;25.30;;;;;;4995026;28;20037;-74
2021/04/04 11:46:02;;;;;;;6.80;2.78;;;15.20;24.90;;;;;;4995196;28;20084;-75
2021/04/04 11:48:36;;;;;;;9.10;3.15;;;15.10;25.20;;;;;;4994765;28;20030;-74
2021/04/04 11:51:10;;;;;;;8.18;2.92;;;15.00;25.00;;;;;;4997676;28;20042;-77
2021/04/04 11:53:40;;;;;;;6.70;2.85;;;15.30;24.70;;;;;;4999733;28;20475;-75
2021/04/04 11:56:05;;;;;;;5.47;2.97;;;15.50;24.30;;;;;;5014087;28;20049;-78
2021/04/04 11:58:31;;;;;;;5.88;3.15;;;15.70;24.10;;;;;;5014423;28;20018;-75
2021/04/04 12:00:59;;;;;;;4.85;3.17;;;15.90;24.20;;;;;;5032275;28;20442;-77
2021/04/04 12:03:25;;;;;;;8.32;2.92;;;15.70;24.30;;;;;;5014308;28;20056;-75
2021/04/04 12:05:51;;;;;;;5.68;2.95;;;15.80;24.10;;;;;;5032239;28;20040;-75
2021/04/04 12:08:26;;;;;;;5.93;3.00;;;16.20;23.80;;;;;;5014298;28;20049;-75
2021/04/04 12:10:52;;;;;;;7.07;3.38;;;16.30;23.50;;;;;;5031856;28;20505;-74
2021/04/04 12:13:18;;;;;;;8.10;3.13;;;15.90;23.10;;;;;;5032328;28;20034;-75
2021/04/04 12:15:44;;;;;;;8.20;3.35;;;15.90;23.10;;;;;;5032123;28;20065;-73
2021/04/04 12:18:10;;;;;;;6.43;2.85;;;15.80;23.00;;;;;;5015757;28;20205;-74
2021/04/04 12:20:35;;;;;;;6.93;2.88;;;15.90;23.10;;;;;;5018430;28;20482;-73
2021/04/04 12:23:08;;;;;;;4.22;2.85;;;16.40;22.90;;;;;;5036112;28;20437;-75
2021/04/04 12:25:33;;;;;;;8.80;3.38;;;16.20;22.70;;;;;;5036100;28;20026;-79
2021/04/04 12:28:00;;;;;;;6.80;3.22;;;16.20;22.60;;;;;;5036056;28;20534;-78
2021/04/04 12:30:37;;;;;;;9.55;3.70;;;15.40;22.60;;;;;;5035990;28;20026;-78
2021/04/04 12:33:15;;;;;;;8.00;3.35;;;15.50;23.00;;;;;;5035356;28;20385;-76
2021/04/04 12:35:44;;;;;;;6.65;3.00;;;15.60;23.00;;;;;;5035375;28;20022;-77
2021/04/04 12:38:30;;;;;;;8.35;3.92;;;16.00;23.20;;;;;;5035963;28;20029;-76
2021/04/04 12:40:56;;;;;;;;;;;16.50;23.20;;;;;;5036129;28;20080;-75
2021/04/04 12:43:22;;;;;;;6.20;2.63;;;16.70;23.00;;;;;;5035310;28;20007;-76
2021/04/04 12:45:48;;;;;;;7.57;3.15;;;16.60;22.50;;;;;;5034911;28;20113;-74
2021/04/04 12:48:22;;;;;;;10.55;3.30;;;16.50;22.40;;;;;;5035379;28;20022;-76
2021/04/04 12:50:50;;;;;;;8.65;3.13;;;16.60;22.10;;;;;;5035240;28;20029;-77
2021/04/04 12:53:31;;;;;;;7.63;2.97;;;16.40;22.10;;;;;;5035026;28;20443;-77
2021/04/04 12:55:57;;;;;;;6.57;3.15;;;16.80;22.30;;;;;;5035186;28;20025;-77
2021/04/04 12:58:30;;;;;;;7.82;2.90;;;17.30;22.20;;;;;;5035325;28;20025;-74
2021/04/04 13:00:55;;;;;;;10.07;5.00;;;17.80;21.90;;;;;;5035410;28;20271;-75
2021/04/04 13:03:21;;;;;;;8.45;3.60;;;18.10;21.30;;;;;;5035142;28;20036;-75
2021/04/04 13:05:49;;;;;;;7.40;3.05;;;18.10;20.70;;;;;;5035306;28;20068;-74
2021/04/04 13:08:20;;;;;;;8.55;3.08;;;18.30;20.70;;;;;;5016837;28;20052;-78
2021/04/04 13:10:51;;;;;;;5.30;2.70;;;18.40;20.30;;;;;;5037185;28;20025;-79
2021/04/04 13:13:25;;;;;;;8.23;3.40;;;18.80;21.20;;;;;;5017354;28;20071;-79